sensor_id;sensor_type;location;lat;lon;timestamp;temperature;humidity
80937;DHT22;70395;51.382;7.074;2023-11-19T00:00:50;13.50;77.50
80937;DHT22;70395;51.382;7.074;2023-11-19T00:03:17;13.50;77.60
80937;DHT22;70395;51.382;7.074;2023-11-19T00:05:43;13.60;77.80
80937;DHT22;70395;51.382;7.074;2023-11-19T00:08:10;13.60;77.80
80937;DHT22;70395;51.382;7.074;2023-11-19T00:10:35;13.70;77.90
80937;DHT22;70395;51.382;7.074;2023-11-19T00:13:01;13.70;77.90
80937;DHT22;70395;51.382;7.074;2023-11-19T00:15:28;13.70;78.50
80937;DHT22;70395;51.382;7.074;2023-11-19T00:17:54;13.80;77.80
80937;DHT22;70395;51.382;7.074;2023-11-19T00:20:20;13.80;77.90
80937;DHT22;70395;51.382;7.074;2023-11-19T00:22:49;13.90;77.90
80937;DHT22;70395;51.382;7.074;2023-11-19T00:25:18;13.90;77.90
80937;DHT22;70395;51.382;7.074;2023-11-19T00:27:45;14.00;77.90
80937;DHT22;70395;51.382;7.074;2023-11-19T00:30:11;14.00;77.90
80937;DHT22;70395;51.382;7.074;2023-11-19T00:32:37;14.00;77.80
80937;DHT22;70395;51.382;7.074;2023-11-19T00:35:06;14.10;77.90
80937;DHT22;70395;51.382;7.074;2023-11-19T00:37:32;14.10;77.80
80937;DHT22;70395;51.382;7.074;2023-11-19T00:39:58;14.10;77.60
80937;DHT22;70395;51.382;7.074;2023-11-19T00:42:24;14.20;77.70
80937;DHT22;70395;51.382;7.074;2023-11-19T00:44:51;14.20;77.50
80937;DHT22;70395;51.382;7.074;2023-11-19T00:47:17;14.30;77.60
80937;DHT22;70395;51.382;7.074;2023-11-19T00:49:48;14.30;77.50
80937;DHT22;70395;51.382;7.074;2023-11-19T00:52:16;14.30;77.40
80937;DHT22;70395;51.382;7.074;2023-11-19T00:54:43;14.40;77.40
80937;DHT22;70395;51.382;7.074;2023-11-19T00:57:09;14.40;77.40
80937;DHT22;70395;51.382;7.074;2023-11-19T00:59:35;14.40;77.40
80937;DHT22;70395;51.382;7.074;2023-11-19T01:02:01;14.40;77.40
80937;DHT22;70395;51.382;7.074;2023-11-19T01:04:35;14.50;77.40
80937;DHT22;70395;51.382;7.074;2023-11-19T01:07:02;14.50;78.20
80937;DHT22;70395;51.382;7.074;2023-11-19T01:09:34;14.50;77.50
80937;DHT22;70395;51.382;7.074;2023-11-19T01:12:01;14.50;77.80
80937;DHT22;70395;51.382;7.074;2023-11-19T01:14:28;14.50;77.80
80937;DHT22;70395;51.382;7.074;2023-11-19T01:16:54;14.50;77.70
80937;DHT22;70395;51.382;7.074;2023-11-19T01:19:23;14.60;78.50
80937;DHT22;70395;51.382;7.074;2023-11-19T01:21:50;14.60;77.80
80937;DHT22;70395;51.382;7.074;2023-11-19T01:24:16;14.60;77.80
80937;DHT22;70395;51.382;7.074;2023-11-19T01:26:43;14.60;77.70
80937;DHT22;70395;51.382;7.074;2023-11-19T01:29:15;14.60;77.70
80937;DHT22;70395;51.382;7.074;2023-11-19T01:31:42;14.60;77.70
80937;DHT22;70395;51.382;7.074;2023-11-19T01:34:08;14.60;78.30
80937;DHT22;70395;51.382;7.074;2023-11-19T01:36:34;14.60;77.60
80937;DHT22;70395;51.382;7.074;2023-11-19T01:39:01;14.70;77.60
80937;DHT22;70395;51.382;7.074;2023-11-19T01:41:26;14.70;77.70
80937;DHT22;70395;51.382;7.074;2023-11-19T01:43:52;14.70;77.60
80937;DHT22;70395;51.382;7.074;2023-11-19T01:46:19;14.70;78.50
80937;DHT22;70395;51.382;7.074;2023-11-19T01:48:46;14.70;77.80
80937;DHT22;70395;51.382;7.074;2023-11-19T01:51:13;14.70;77.70
80937;DHT22;70395;51.382;7.074;2023-11-19T01:53:43;14.70;77.70
80937;DHT22;70395;51.382;7.074;2023-11-19T01:56:11;14.70;77.70
80937;DHT22;70395;51.382;7.074;2023-11-19T01:58:39;14.70;77.70
80937;DHT22;70395;51.382;7.074;2023-11-19T02:01:07;14.70;77.70
80937;DHT22;70395;51.382;7.074;2023-11-19T02:03:34;14.80;77.90
80937;DHT22;70395;51.382;7.074;2023-11-19T02:06:00;14.80;77.90
80937;DHT22;70395;51.382;7.074;2023-11-19T02:08:26;14.80;78.00
80937;DHT22;70395;51.382;7.074;2023-11-19T02:10:52;14.80;77.80
80937;DHT22;70395;51.382;7.074;2023-11-19T02:13:22;14.80;77.80
80937;DHT22;70395;51.382;7.074;2023-11-19T02:15:48;14.90;77.90
80937;DHT22;70395;51.382;7.074;2023-11-19T02:18:24;14.90;77.80
80937;DHT22;70395;51.382;7.074;2023-11-19T02:20:57;14.90;77.80
80937;DHT22;70395;51.382;7.074;2023-11-19T02:23:26;14.90;77.80
80937;DHT22;70395;51.382;7.074;2023-11-19T02:28:32;14.90;77.70
80937;DHT22;70395;51.382;7.074;2023-11-19T02:30:59;14.90;77.70
80937;DHT22;70395;51.382;7.074;2023-11-19T02:33:25;15.00;77.70
80937;DHT22;70395;51.382;7.074;2023-11-19T02:35:51;15.00;77.80
80937;DHT22;70395;51.382;7.074;2023-11-19T02:38:16;15.00;77.70
80937;DHT22;70395;51.382;7.074;2023-11-19T02:40:42;15.00;77.80
80937;DHT22;70395;51.382;7.074;2023-11-19T02:43:08;15.00;77.80
80937;DHT22;70395;51.382;7.074;2023-11-19T02:45:34;15.00;77.70
80937;DHT22;70395;51.382;7.074;2023-11-19T02:48:01;15.00;77.80
80937;DHT22;70395;51.382;7.074;2023-11-19T02:50:27;15.00;77.80
80937;DHT22;70395;51.382;7.074;2023-11-19T02:52:54;15.00;77.80
80937;DHT22;70395;51.382;7.074;2023-11-19T02:55:22;15.00;77.70
80937;DHT22;70395;51.382;7.074;2023-11-19T02:57:50;15.10;77.80
80937;DHT22;70395;51.382;7.074;2023-11-19T03:00:19;15.10;77.80
80937;DHT22;70395;51.382;7.074;2023-11-19T03:02:51;15.10;77.80
80937;DHT22;70395;51.382;7.074;2023-11-19T03:05:35;15.10;77.70
80937;DHT22;70395;51.382;7.074;2023-11-19T03:08:01;15.20;77.70
80937;DHT22;70395;51.382;7.074;2023-11-19T03:10:26;15.20;77.70
80937;DHT22;70395;51.382;7.074;2023-11-19T03:12:54;15.20;77.60
80937;DHT22;70395;51.382;7.074;2023-11-19T03:15:22;15.20;77.50
80937;DHT22;70395;51.382;7.074;2023-11-19T03:17:48;15.20;77.30
80937;DHT22;70395;51.382;7.074;2023-11-19T03:20:14;15.20;77.20
80937;DHT22;70395;51.382;7.074;2023-11-19T03:22:42;15.30;77.20
80937;DHT22;70395;51.382;7.074;2023-11-19T03:25:09;15.30;77.10
80937;DHT22;70395;51.382;7.074;2023-11-19T03:27:39;15.30;77.00
80937;DHT22;70395;51.382;7.074;2023-11-19T03:30:10;15.30;76.80
80937;DHT22;70395;51.382;7.074;2023-11-19T03:32:36;15.30;76.80
80937;DHT22;70395;51.382;7.074;2023-11-19T03:35:04;15.30;76.70
80937;DHT22;70395;51.382;7.074;2023-11-19T03:37:32;15.30;76.40
80937;DHT22;70395;51.382;7.074;2023-11-19T03:39:59;15.40;76.20
80937;DHT22;70395;51.382;7.074;2023-11-19T03:42:26;15.40;76.00
80937;DHT22;70395;51.382;7.074;2023-11-19T03:44:53;15.30;75.70
80937;DHT22;70395;51.382;7.074;2023-11-19T03:47:19;15.30;75.50
80937;DHT22;70395;51.382;7.074;2023-11-19T03:49:51;15.30;75.70
80937;DHT22;70395;51.382;7.074;2023-11-19T03:52:18;15.30;75.70
80937;DHT22;70395;51.382;7.074;2023-11-19T03:54:45;15.30;75.60
80937;DHT22;70395;51.382;7.074;2023-11-19T03:57:12;15.40;75.70
80937;DHT22;70395;51.382;7.074;2023-11-19T03:59:39;15.40;75.80
80937;DHT22;70395;51.382;7.074;2023-11-19T04:02:05;15.40;75.60
80937;DHT22;70395;51.382;7.074;2023-11-19T04:04:32;15.40;75.50
80937;DHT22;70395;51.382;7.074;2023-11-19T04:06:58;15.40;75.50
80937;DHT22;70395;51.382;7.074;2023-11-19T04:09:26;15.30;75.20
80937;DHT22;70395;51.382;7.074;2023-11-19T04:11:52;15.30;75.10
80937;DHT22;70395;51.382;7.074;2023-11-19T04:14:18;15.30;75.00
80937;DHT22;70395;51.382;7.074;2023-11-19T04:16:46;15.20;74.80
80937;DHT22;70395;51.382;7.074;2023-11-19T04:19:12;15.20;75.40
80937;DHT22;70395;51.382;7.074;2023-11-19T04:21:41;15.10;74.60
80937;DHT22;70395;51.382;7.074;2023-11-19T04:24:10;15.10;74.70
80937;DHT22;70395;51.382;7.074;2023-11-19T04:26:46;15.10;74.90
80937;DHT22;70395;51.382;7.074;2023-11-19T04:29:13;15.00;74.70
80937;DHT22;70395;51.382;7.074;2023-11-19T04:31:40;15.00;74.80
80937;DHT22;70395;51.382;7.074;2023-11-19T04:34:07;15.00;74.70
80937;DHT22;70395;51.382;7.074;2023-11-19T04:36:33;14.90;74.50
80937;DHT22;70395;51.382;7.074;2023-11-19T04:39:00;14.90;74.50
80937;DHT22;70395;51.382;7.074;2023-11-19T04:41:27;14.90;74.60
80937;DHT22;70395;51.382;7.074;2023-11-19T04:43:53;14.90;74.60
80937;DHT22;70395;51.382;7.074;2023-11-19T04:46:19;14.80;74.50
80937;DHT22;70395;51.382;7.074;2023-11-19T04:48:45;14.80;74.60
80937;DHT22;70395;51.382;7.074;2023-11-19T04:51:11;14.70;74.60
80937;DHT22;70395;51.382;7.074;2023-11-19T04:53:37;14.70;74.60
80937;DHT22;70395;51.382;7.074;2023-11-19T04:56:09;14.70;74.70
80937;DHT22;70395;51.382;7.074;2023-11-19T04:58:36;14.70;74.50
80937;DHT22;70395;51.382;7.074;2023-11-19T05:01:03;14.70;74.50
80937;DHT22;70395;51.382;7.074;2023-11-19T05:03:30;14.60;74.30
80937;DHT22;70395;51.382;7.074;2023-11-19T05:05:57;14.60;74.30
80937;DHT22;70395;51.382;7.074;2023-11-19T05:08:23;14.70;74.30
80937;DHT22;70395;51.382;7.074;2023-11-19T05:10:49;14.70;74.40
80937;DHT22;70395;51.382;7.074;2023-11-19T05:13:15;14.70;74.30
80937;DHT22;70395;51.382;7.074;2023-11-19T05:15:42;14.70;74.20
80937;DHT22;70395;51.382;7.074;2023-11-19T05:18:08;14.70;74.20
80937;DHT22;70395;51.382;7.074;2023-11-19T05:20:34;14.70;74.10
80937;DHT22;70395;51.382;7.074;2023-11-19T05:23:00;14.70;74.00
80937;DHT22;70395;51.382;7.074;2023-11-19T05:25:26;14.70;73.80
80937;DHT22;70395;51.382;7.074;2023-11-19T05:27:53;14.80;73.70
80937;DHT22;70395;51.382;7.074;2023-11-19T05:30:19;14.70;73.30
80937;DHT22;70395;51.382;7.074;2023-11-19T05:32:45;14.70;73.10
80937;DHT22;70395;51.382;7.074;2023-11-19T05:35:11;14.70;73.20
80937;DHT22;70395;51.382;7.074;2023-11-19T05:37:37;14.70;73.30
80937;DHT22;70395;51.382;7.074;2023-11-19T05:40:04;14.70;73.30
80937;DHT22;70395;51.382;7.074;2023-11-19T05:42:37;14.70;73.50
80937;DHT22;70395;51.382;7.074;2023-11-19T05:45:05;14.70;73.60
80937;DHT22;70395;51.382;7.074;2023-11-19T05:47:33;14.80;73.60
80937;DHT22;70395;51.382;7.074;2023-11-19T05:49:59;14.80;73.60
80937;DHT22;70395;51.382;7.074;2023-11-19T05:52:25;14.80;73.50
80937;DHT22;70395;51.382;7.074;2023-11-19T05:54:50;14.80;73.00
80937;DHT22;70395;51.382;7.074;2023-11-19T05:57:19;14.80;72.80
80937;DHT22;70395;51.382;7.074;2023-11-19T05:59:49;14.80;72.50
80937;DHT22;70395;51.382;7.074;2023-11-19T06:02:15;14.90;72.30
80937;DHT22;70395;51.382;7.074;2023-11-19T06:04:41;14.90;72.20
80937;DHT22;70395;51.382;7.074;2023-11-19T06:07:09;14.90;71.60
80937;DHT22;70395;51.382;7.074;2023-11-19T06:09:35;14.90;71.90
80937;DHT22;70395;51.382;7.074;2023-11-19T06:12:01;14.90;72.00
80937;DHT22;70395;51.382;7.074;2023-11-19T06:14:31;14.90;71.50
80937;DHT22;70395;51.382;7.074;2023-11-19T06:16:57;14.90;71.50
80937;DHT22;70395;51.382;7.074;2023-11-19T06:19:23;14.90;71.60
80937;DHT22;70395;51.382;7.074;2023-11-19T06:21:50;14.90;71.50
80937;DHT22;70395;51.382;7.074;2023-11-19T06:24:16;14.90;71.50
80937;DHT22;70395;51.382;7.074;2023-11-19T06:26:42;14.90;71.10
80937;DHT22;70395;51.382;7.074;2023-11-19T06:29:08;14.90;71.30
80937;DHT22;70395;51.382;7.074;2023-11-19T06:31:34;14.90;71.30
80937;DHT22;70395;51.382;7.074;2023-11-19T06:34:00;14.90;70.90
80937;DHT22;70395;51.382;7.074;2023-11-19T06:36:25;14.90;70.50
80937;DHT22;70395;51.382;7.074;2023-11-19T06:38:52;14.90;70.30
80937;DHT22;70395;51.382;7.074;2023-11-19T06:41:18;14.90;70.00
80937;DHT22;70395;51.382;7.074;2023-11-19T06:43:44;14.80;69.60
80937;DHT22;70395;51.382;7.074;2023-11-19T06:46:16;14.80;69.30
80937;DHT22;70395;51.382;7.074;2023-11-19T06:48:43;14.70;68.90
80937;DHT22;70395;51.382;7.074;2023-11-19T06:51:10;14.70;69.40
80937;DHT22;70395;51.382;7.074;2023-11-19T06:53:36;14.70;69.00
80937;DHT22;70395;51.382;7.074;2023-11-19T06:56:03;14.70;69.30
80937;DHT22;70395;51.382;7.074;2023-11-19T06:58:35;14.60;69.40
80937;DHT22;70395;51.382;7.074;2023-11-19T07:01:01;14.60;69.00
80937;DHT22;70395;51.382;7.074;2023-11-19T07:03:27;14.50;69.00
80937;DHT22;70395;51.382;7.074;2023-11-19T07:05:52;14.50;69.10
80937;DHT22;70395;51.382;7.074;2023-11-19T07:08:19;14.50;69.10
80937;DHT22;70395;51.382;7.074;2023-11-19T07:10:45;14.40;69.10
80937;DHT22;70395;51.382;7.074;2023-11-19T07:13:12;14.40;69.20
80937;DHT22;70395;51.382;7.074;2023-11-19T07:15:38;14.40;69.40
80937;DHT22;70395;51.382;7.074;2023-11-19T07:18:04;14.40;69.50
80937;DHT22;70395;51.382;7.074;2023-11-19T07:20:30;14.30;69.40
80937;DHT22;70395;51.382;7.074;2023-11-19T07:22:56;14.30;69.30
80937;DHT22;70395;51.382;7.074;2023-11-19T07:25:22;14.30;69.20
80937;DHT22;70395;51.382;7.074;2023-11-19T07:27:49;14.20;69.20
80937;DHT22;70395;51.382;7.074;2023-11-19T07:30:14;14.20;69.20
80937;DHT22;70395;51.382;7.074;2023-11-19T07:32:40;14.20;69.20
80937;DHT22;70395;51.382;7.074;2023-11-19T07:35:06;14.20;69.30
80937;DHT22;70395;51.382;7.074;2023-11-19T07:37:32;14.10;68.90
80937;DHT22;70395;51.382;7.074;2023-11-19T07:39:58;14.20;69.10
80937;DHT22;70395;51.382;7.074;2023-11-19T07:42:24;14.10;68.80
80937;DHT22;70395;51.382;7.074;2023-11-19T07:44:50;14.10;68.80
80937;DHT22;70395;51.382;7.074;2023-11-19T07:47:16;14.10;68.50
80937;DHT22;70395;51.382;7.074;2023-11-19T07:49:42;14.10;68.70
80937;DHT22;70395;51.382;7.074;2023-11-19T07:52:09;14.10;68.70
80937;DHT22;70395;51.382;7.074;2023-11-19T07:54:35;14.20;68.80
80937;DHT22;70395;51.382;7.074;2023-11-19T07:57:01;14.20;68.50
80937;DHT22;70395;51.382;7.074;2023-11-19T07:59:26;14.20;68.70
80937;DHT22;70395;51.382;7.074;2023-11-19T08:01:52;14.20;68.70
80937;DHT22;70395;51.382;7.074;2023-11-19T08:04:18;14.30;68.90
80937;DHT22;70395;51.382;7.074;2023-11-19T08:06:44;14.30;68.60
80937;DHT22;70395;51.382;7.074;2023-11-19T08:09:10;14.30;68.70
80937;DHT22;70395;51.382;7.074;2023-11-19T08:11:42;14.40;68.60
80937;DHT22;70395;51.382;7.074;2023-11-19T08:14:08;14.40;68.10
80937;DHT22;70395;51.382;7.074;2023-11-19T08:16:34;14.40;67.90
80937;DHT22;70395;51.382;7.074;2023-11-19T08:18:59;14.50;67.60
80937;DHT22;70395;51.382;7.074;2023-11-19T08:21:25;14.50;67.80
80937;DHT22;70395;51.382;7.074;2023-11-19T08:23:52;14.60;67.30
80937;DHT22;70395;51.382;7.074;2023-11-19T08:26:18;14.70;67.50
80937;DHT22;70395;51.382;7.074;2023-11-19T08:28:44;14.70;66.90
80937;DHT22;70395;51.382;7.074;2023-11-19T08:31:10;14.80;67.60
80937;DHT22;70395;51.382;7.074;2023-11-19T08:33:36;14.80;66.90
80937;DHT22;70395;51.382;7.074;2023-11-19T08:36:01;14.90;67.10
80937;DHT22;70395;51.382;7.074;2023-11-19T08:38:29;14.90;66.70
80937;DHT22;70395;51.382;7.074;2023-11-19T08:40:55;15.00;66.80
80937;DHT22;70395;51.382;7.074;2023-11-19T08:43:28;15.00;66.50
80937;DHT22;70395;51.382;7.074;2023-11-19T08:45:56;15.00;66.60
80937;DHT22;70395;51.382;7.074;2023-11-19T08:48:22;15.00;66.50
80937;DHT22;70395;51.382;7.074;2023-11-19T08:50:48;15.00;66.50
80937;DHT22;70395;51.382;7.074;2023-11-19T08:53:13;15.00;66.30
80937;DHT22;70395;51.382;7.074;2023-11-19T08:55:39;15.10;66.70
80937;DHT22;70395;51.382;7.074;2023-11-19T08:58:05;15.10;66.20
80937;DHT22;70395;51.382;7.074;2023-11-19T09:00:31;15.20;66.20
80937;DHT22;70395;51.382;7.074;2023-11-19T09:02:58;15.20;66.10
80937;DHT22;70395;51.382;7.074;2023-11-19T09:05:24;15.30;65.50
80937;DHT22;70395;51.382;7.074;2023-11-19T09:07:50;15.30;65.50
80937;DHT22;70395;51.382;7.074;2023-11-19T09:10:16;15.30;65.50
80937;DHT22;70395;51.382;7.074;2023-11-19T09:12:42;15.30;65.80
80937;DHT22;70395;51.382;7.074;2023-11-19T09:15:08;15.30;65.60
80937;DHT22;70395;51.382;7.074;2023-11-19T09:17:36;15.40;65.40
80937;DHT22;70395;51.382;7.074;2023-11-19T09:20:02;15.40;65.30
80937;DHT22;70395;51.382;7.074;2023-11-19T09:22:28;15.40;65.10
80937;DHT22;70395;51.382;7.074;2023-11-19T09:24:54;15.50;65.40
80937;DHT22;70395;51.382;7.074;2023-11-19T09:27:20;15.50;65.50
80937;DHT22;70395;51.382;7.074;2023-11-19T09:29:46;15.60;65.10
80937;DHT22;70395;51.382;7.074;2023-11-19T09:32:14;15.70;64.70
80937;DHT22;70395;51.382;7.074;2023-11-19T09:34:40;15.70;65.00
80937;DHT22;70395;51.382;7.074;2023-11-19T09:37:05;15.80;64.90
80937;DHT22;70395;51.382;7.074;2023-11-19T09:39:31;15.90;65.00
80937;DHT22;70395;51.382;7.074;2023-11-19T09:41:57;15.90;64.20
80937;DHT22;70395;51.382;7.074;2023-11-19T09:44:24;16.00;64.30
80937;DHT22;70395;51.382;7.074;2023-11-19T09:46:50;16.10;63.70
80937;DHT22;70395;51.382;7.074;2023-11-19T09:49:21;16.10;63.50
80937;DHT22;70395;51.382;7.074;2023-11-19T09:51:50;16.10;63.40
80937;DHT22;70395;51.382;7.074;2023-11-19T09:54:15;16.10;63.70
80937;DHT22;70395;51.382;7.074;2023-11-19T09:56:41;16.10;63.00
80937;DHT22;70395;51.382;7.074;2023-11-19T09:59:08;16.10;63.00
80937;DHT22;70395;51.382;7.074;2023-11-19T10:01:37;16.10;63.30
80937;DHT22;70395;51.382;7.074;2023-11-19T10:04:04;16.00;62.70
80937;DHT22;70395;51.382;7.074;2023-11-19T10:06:32;16.10;63.20
80937;DHT22;70395;51.382;7.074;2023-11-19T10:08:58;16.00;62.80
80937;DHT22;70395;51.382;7.074;2023-11-19T10:11:25;16.00;62.40
80937;DHT22;70395;51.382;7.074;2023-11-19T10:13:53;16.00;62.40
80937;DHT22;70395;51.382;7.074;2023-11-19T10:16:19;15.90;62.30
80937;DHT22;70395;51.382;7.074;2023-11-19T10:18:49;15.90;62.80
80937;DHT22;70395;51.382;7.074;2023-11-19T10:21:18;15.90;62.90
80937;DHT22;70395;51.382;7.074;2023-11-19T10:23:57;15.90;63.10
80937;DHT22;70395;51.382;7.074;2023-11-19T10:26:26;15.90;62.40
80937;DHT22;70395;51.382;7.074;2023-11-19T10:28:52;16.00;63.10
80937;DHT22;70395;51.382;7.074;2023-11-19T10:31:20;16.00;62.70
80937;DHT22;70395;51.382;7.074;2023-11-19T10:33:55;16.10;62.60
80937;DHT22;70395;51.382;7.074;2023-11-19T10:36:22;16.10;61.80
80937;DHT22;70395;51.382;7.074;2023-11-19T10:38:56;16.00;62.20
80937;DHT22;70395;51.382;7.074;2023-11-19T10:41:29;16.00;62.60
80937;DHT22;70395;51.382;7.074;2023-11-19T10:43:56;16.00;62.20
80937;DHT22;70395;51.382;7.074;2023-11-19T10:46:23;16.00;62.50
80937;DHT22;70395;51.382;7.074;2023-11-19T10:49:03;16.00;62.40
80937;DHT22;70395;51.382;7.074;2023-11-19T10:51:29;16.00;62.40
80937;DHT22;70395;51.382;7.074;2023-11-19T10:53:56;16.00;61.80
80937;DHT22;70395;51.382;7.074;2023-11-19T10:56:32;16.00;62.30
80937;DHT22;70395;51.382;7.074;2023-11-19T10:59:00;16.00;62.50
80937;DHT22;70395;51.382;7.074;2023-11-19T11:01:34;16.00;62.00
80937;DHT22;70395;51.382;7.074;2023-11-19T11:04:22;16.00;62.20
80937;DHT22;70395;51.382;7.074;2023-11-19T11:06:51;16.00;61.80
80937;DHT22;70395;51.382;7.074;2023-11-19T11:09:20;16.10;62.00
80937;DHT22;70395;51.382;7.074;2023-11-19T11:11:47;16.10;61.90
80937;DHT22;70395;51.382;7.074;2023-11-19T11:14:13;16.10;62.30
80937;DHT22;70395;51.382;7.074;2023-11-19T11:16:43;16.20;62.30
80937;DHT22;70395;51.382;7.074;2023-11-19T11:19:10;16.30;62.10
80937;DHT22;70395;51.382;7.074;2023-11-19T11:21:39;16.40;61.90
80937;DHT22;70395;51.382;7.074;2023-11-19T11:33:55;16.60;59.20
80937;DHT22;70395;51.382;7.074;2023-11-19T11:36:20;16.60;59.40
80937;DHT22;70395;51.382;7.074;2023-11-19T11:38:51;16.70;59.40
80937;DHT22;70395;51.382;7.074;2023-11-19T11:41:21;16.60;58.80
80937;DHT22;70395;51.382;7.074;2023-11-19T11:43:52;16.70;59.40
80937;DHT22;70395;51.382;7.074;2023-11-19T11:49:06;16.80;58.60
80937;DHT22;70395;51.382;7.074;2023-11-19T11:57:02;17.00;58.50
80937;DHT22;70395;51.382;7.074;2023-11-19T11:59:48;17.00;58.10
80937;DHT22;70395;51.382;7.074;2023-11-19T12:02:19;17.10;58.10
80937;DHT22;70395;51.382;7.074;2023-11-19T12:04:49;17.00;58.10
80937;DHT22;70395;51.382;7.074;2023-11-19T12:07:20;17.00;57.80
80937;DHT22;70395;51.382;7.074;2023-11-19T12:10:09;16.90;57.70
80937;DHT22;70395;51.382;7.074;2023-11-19T12:12:37;16.90;57.60
80937;DHT22;70395;51.382;7.074;2023-11-19T12:15:07;16.80;58.20
80937;DHT22;70395;51.382;7.074;2023-11-19T12:17:41;16.90;58.50
80937;DHT22;70395;51.382;7.074;2023-11-19T12:20:10;16.90;58.30
80937;DHT22;70395;51.382;7.074;2023-11-19T12:22:40;17.00;58.60
80937;DHT22;70395;51.382;7.074;2023-11-19T12:25:08;17.00;57.50
80937;DHT22;70395;51.382;7.074;2023-11-19T12:27:36;17.10;57.80
80937;DHT22;70395;51.382;7.074;2023-11-19T12:30:05;17.10;58.00
80937;DHT22;70395;51.382;7.074;2023-11-19T12:32:44;17.10;57.80
80937;DHT22;70395;51.382;7.074;2023-11-19T12:35:12;17.10;57.60
80937;DHT22;70395;51.382;7.074;2023-11-19T12:37:41;17.20;58.40
80937;DHT22;70395;51.382;7.074;2023-11-19T12:40:22;17.20;57.80
80937;DHT22;70395;51.382;7.074;2023-11-19T12:42:50;17.20;58.30
80937;DHT22;70395;51.382;7.074;2023-11-19T12:45:18;17.20;58.20
80937;DHT22;70395;51.382;7.074;2023-11-19T12:47:46;17.20;57.60
80937;DHT22;70395;51.382;7.074;2023-11-19T12:50:13;17.20;57.30
80937;DHT22;70395;51.382;7.074;2023-11-19T12:52:39;17.10;57.00
80937;DHT22;70395;51.382;7.074;2023-11-19T12:55:25;17.10;57.30
80937;DHT22;70395;51.382;7.074;2023-11-19T12:57:54;17.00;57.00
80937;DHT22;70395;51.382;7.074;2023-11-19T13:00:22;16.90;57.40
80937;DHT22;70395;51.382;7.074;2023-11-19T13:02:54;16.80;57.40
80937;DHT22;70395;51.382;7.074;2023-11-19T13:05:33;16.70;58.00
80937;DHT22;70395;51.382;7.074;2023-11-19T13:08:07;16.60;58.40
80937;DHT22;70395;51.382;7.074;2023-11-19T13:13:21;16.40;59.80
80937;DHT22;70395;51.382;7.074;2023-11-19T13:15:47;16.40;60.40
80937;DHT22;70395;51.382;7.074;2023-11-19T13:18:16;16.20;60.30
80937;DHT22;70395;51.382;7.074;2023-11-19T13:20:42;16.10;60.20
80937;DHT22;70395;51.382;7.074;2023-11-19T13:23:09;16.00;61.30
80937;DHT22;70395;51.382;7.074;2023-11-19T13:25:36;15.80;62.10
80937;DHT22;70395;51.382;7.074;2023-11-19T13:28:02;15.60;62.20
80937;DHT22;70395;51.382;7.074;2023-11-19T13:30:29;15.50;62.90
80937;DHT22;70395;51.382;7.074;2023-11-19T13:32:56;15.40;63.10
80937;DHT22;70395;51.382;7.074;2023-11-19T13:35:22;15.30;63.50
80937;DHT22;70395;51.382;7.074;2023-11-19T13:37:48;15.20;64.20
80937;DHT22;70395;51.382;7.074;2023-11-19T13:40:14;15.10;64.30
80937;DHT22;70395;51.382;7.074;2023-11-19T13:42:44;15.10;64.40
80937;DHT22;70395;51.382;7.074;2023-11-19T13:45:14;15.00;64.80
80937;DHT22;70395;51.382;7.074;2023-11-19T13:47:44;15.10;65.50
80937;DHT22;70395;51.382;7.074;2023-11-19T13:50:12;15.20;65.60
80937;DHT22;70395;51.382;7.074;2023-11-19T13:52:44;15.30;65.30
80937;DHT22;70395;51.382;7.074;2023-11-19T13:55:12;15.30;65.30
80937;DHT22;70395;51.382;7.074;2023-11-19T13:57:41;15.40;64.90
80937;DHT22;70395;51.382;7.074;2023-11-19T14:00:12;15.40;64.60
80937;DHT22;70395;51.382;7.074;2023-11-19T14:02:41;15.40;64.00
80937;DHT22;70395;51.382;7.074;2023-11-19T14:05:09;15.40;64.20
80937;DHT22;70395;51.382;7.074;2023-11-19T14:07:41;15.50;64.40
80937;DHT22;70395;51.382;7.074;2023-11-19T14:10:08;15.40;64.00
80937;DHT22;70395;51.382;7.074;2023-11-19T14:12:39;15.40;63.80
80937;DHT22;70395;51.382;7.074;2023-11-19T14:15:09;15.40;64.00
80937;DHT22;70395;51.382;7.074;2023-11-19T14:17:38;15.30;63.80
80937;DHT22;70395;51.382;7.074;2023-11-19T14:20:05;15.40;63.90
80937;DHT22;70395;51.382;7.074;2023-11-19T14:22:44;15.30;63.90
80937;DHT22;70395;51.382;7.074;2023-11-19T14:25:14;15.30;64.40
80937;DHT22;70395;51.382;7.074;2023-11-19T14:27:42;15.30;64.30
80937;DHT22;70395;51.382;7.074;2023-11-19T14:30:10;15.30;64.50
80937;DHT22;70395;51.382;7.074;2023-11-19T14:32:40;15.30;64.70
80937;DHT22;70395;51.382;7.074;2023-11-19T14:35:11;15.20;64.70
80937;DHT22;70395;51.382;7.074;2023-11-19T14:37:38;15.20;64.90
80937;DHT22;70395;51.382;7.074;2023-11-19T14:40:04;15.20;65.00
80937;DHT22;70395;51.382;7.074;2023-11-19T14:42:31;15.20;65.00
80937;DHT22;70395;51.382;7.074;2023-11-19T14:44:57;15.20;65.90
80937;DHT22;70395;51.382;7.074;2023-11-19T14:47:24;15.20;65.10
80937;DHT22;70395;51.382;7.074;2023-11-19T14:49:50;15.10;64.80
80937;DHT22;70395;51.382;7.074;2023-11-19T14:52:16;15.10;65.10
80937;DHT22;70395;51.382;7.074;2023-11-19T14:54:42;15.10;65.50
80937;DHT22;70395;51.382;7.074;2023-11-19T14:57:08;15.10;65.40
80937;DHT22;70395;51.382;7.074;2023-11-19T14:59:35;15.10;65.50
80937;DHT22;70395;51.382;7.074;2023-11-19T15:02:01;15.00;65.90
80937;DHT22;70395;51.382;7.074;2023-11-19T15:04:28;15.00;65.80
80937;DHT22;70395;51.382;7.074;2023-11-19T15:06:57;15.00;66.00
80937;DHT22;70395;51.382;7.074;2023-11-19T15:09:23;14.90;65.80
80937;DHT22;70395;51.382;7.074;2023-11-19T15:11:50;14.90;65.80
80937;DHT22;70395;51.382;7.074;2023-11-19T15:14:16;14.80;65.90
80937;DHT22;70395;51.382;7.074;2023-11-19T15:16:45;14.80;65.90
80937;DHT22;70395;51.382;7.074;2023-11-19T15:19:12;14.70;66.10
80937;DHT22;70395;51.382;7.074;2023-11-19T15:21:40;14.70;66.40
80937;DHT22;70395;51.382;7.074;2023-11-19T15:24:08;14.60;66.70
80937;DHT22;70395;51.382;7.074;2023-11-19T15:26:35;14.60;67.00
80937;DHT22;70395;51.382;7.074;2023-11-19T15:29:02;14.50;67.20
80937;DHT22;70395;51.382;7.074;2023-11-19T15:31:28;14.50;67.30
80937;DHT22;70395;51.382;7.074;2023-11-19T15:33:54;14.40;68.10
80937;DHT22;70395;51.382;7.074;2023-11-19T15:36:20;14.40;68.30
80937;DHT22;70395;51.382;7.074;2023-11-19T15:38:46;14.40;68.50
80937;DHT22;70395;51.382;7.074;2023-11-19T15:41:12;14.30;68.70
80937;DHT22;70395;51.382;7.074;2023-11-19T15:43:38;14.30;68.90
80937;DHT22;70395;51.382;7.074;2023-11-19T15:46:08;14.30;68.90
80937;DHT22;70395;51.382;7.074;2023-11-19T15:48:35;14.20;69.20
80937;DHT22;70395;51.382;7.074;2023-11-19T15:51:01;14.20;69.00
80937;DHT22;70395;51.382;7.074;2023-11-19T15:53:28;14.10;69.20
80937;DHT22;70395;51.382;7.074;2023-11-19T15:55:56;14.10;69.20